createdAt,value
2023-05-12T00:02:42.620Z,10.42
2023-05-12T00:05:29.991Z,10.38
2023-05-12T00:08:16.821Z,10.38
2023-05-12T00:11:04.155Z,10.35
2023-05-12T00:13:50.768Z,10.24
2023-05-12T00:16:37.324Z,10.33
2023-05-12T00:19:23.600Z,10.38
2023-05-12T00:22:11.494Z,10.45
2023-05-12T00:24:58.051Z,10.74
2023-05-12T00:27:44.347Z,10.69
2023-05-12T00:30:30.756Z,10.56
2023-05-12T00:33:17.203Z,10.60
2023-05-12T00:36:04.172Z,10.66
2023-05-12T00:38:50.700Z,10.59
2023-05-12T00:41:37.000Z,10.61
2023-05-12T00:44:23.349Z,10.51
2023-05-12T00:47:09.801Z,10.45
2023-05-12T00:49:56.745Z,10.73
2023-05-12T00:52:44.048Z,10.59
2023-05-12T00:55:31.425Z,10.55
2023-05-12T00:58:18.005Z,10.47
2023-05-12T01:01:04.388Z,10.54
2023-05-12T01:03:51.477Z,10.61
2023-05-12T01:07:10.004Z,10.60
2023-05-12T01:09:58.055Z,10.49
2023-05-12T01:12:45.907Z,10.34
2023-05-12T01:15:33.228Z,10.46
2023-05-12T01:18:21.545Z,10.13
2023-05-12T01:21:08.404Z,10.55
2023-05-12T01:23:59.326Z,10.50
2023-05-12T01:26:47.937Z,10.60
2023-05-12T01:29:35.607Z,10.51
2023-05-12T01:32:22.337Z,10.69
2023-05-12T01:35:09.193Z,10.85
2023-05-12T01:37:57.695Z,10.79
2023-05-12T01:40:43.948Z,10.75
2023-05-12T01:43:30.675Z,10.73
2023-05-12T01:46:17.505Z,10.69
2023-05-12T01:49:03.930Z,10.91
2023-05-12T01:51:50.521Z,10.89
2023-05-12T01:54:42.758Z,10.72
2023-05-12T01:57:30.675Z,10.75
2023-05-12T02:00:19.737Z,10.44
2023-05-12T02:03:08.031Z,10.41
2023-05-12T02:05:54.691Z,10.57
2023-05-12T02:08:41.644Z,10.51
2023-05-12T02:11:29.397Z,10.51
2023-05-12T02:14:16.099Z,10.30
2023-05-12T02:17:03.185Z,10.43
2023-05-12T02:19:51.209Z,10.20
2023-05-12T02:22:37.815Z,10.37
2023-05-12T02:25:24.207Z,10.43
2023-05-12T02:28:11.784Z,10.33
2023-05-12T02:30:59.377Z,10.39
2023-05-12T02:33:46.758Z,10.29
2023-05-12T02:36:34.320Z,10.31
2023-05-12T02:39:20.367Z,10.06
2023-05-12T02:42:07.331Z,10.11
2023-05-12T02:44:53.677Z,10.20
2023-05-12T02:47:40.113Z,10.06
2023-05-12T02:50:26.440Z,10.03
2023-05-12T02:53:12.869Z,10.18
2023-05-12T02:55:59.047Z,10.09
2023-05-12T02:58:45.962Z,10.25
2023-05-12T03:01:32.755Z,10.28
2023-05-12T03:04:19.316Z,10.19
2023-05-12T03:07:06.040Z,10.22
2023-05-12T03:09:53.435Z,10.18
2023-05-12T03:12:41.931Z,9.91
2023-05-12T03:15:28.161Z,9.97
2023-05-12T03:18:14.772Z,10.19
2023-05-12T03:21:01.352Z,10.10
2023-05-12T03:23:47.675Z,10.05
2023-05-12T03:26:34.001Z,9.88
2023-05-12T03:29:20.233Z,10.19
2023-05-12T03:32:07.062Z,10.24
2023-05-12T03:34:54.047Z,10.18
2023-05-12T03:37:40.501Z,10.29
2023-05-12T03:40:27.829Z,10.37
2023-05-12T03:43:14.163Z,10.37
2023-05-12T03:46:00.856Z,10.22
2023-05-12T03:48:47.569Z,10.27
2023-05-12T03:51:35.463Z,10.48
2023-05-12T03:54:22.176Z,10.50
2023-05-12T03:57:08.712Z,10.58
2023-05-12T03:59:55.507Z,10.61
2023-05-12T04:02:42.027Z,10.57
2023-05-12T04:05:28.650Z,10.10
2023-05-12T04:08:15.088Z,10.18
2023-05-12T04:11:02.281Z,10.44
2023-05-12T04:13:48.462Z,10.45
2023-05-12T04:16:35.672Z,10.27
2023-05-12T04:19:22.157Z,10.21
2023-05-12T04:22:08.662Z,10.02
2023-05-12T04:24:55.141Z,10.30
2023-05-12T04:27:41.993Z,10.33
2023-05-12T04:30:28.310Z,10.37
2023-05-12T04:33:14.933Z,10.40
2023-05-12T04:36:01.730Z,10.39
2023-05-12T04:38:48.499Z,10.49
2023-05-12T04:41:36.297Z,10.38
2023-05-12T04:44:23.124Z,10.68
2023-05-12T04:47:11.343Z,10.70
2023-05-12T04:49:57.520Z,10.58
2023-05-12T04:52:43.978Z,10.81
2023-05-12T04:55:31.061Z,10.87
2023-05-12T04:58:17.632Z,10.79
2023-05-12T05:01:04.326Z,10.64
2023-05-12T05:03:52.497Z,10.81
2023-05-12T05:06:39.629Z,10.95
2023-05-12T05:09:27.036Z,11.06
2023-05-12T05:12:13.630Z,11.05
2023-05-12T05:15:00.302Z,11.13
2023-05-12T05:17:49.494Z,11.13
2023-05-12T05:20:40.669Z,11.08
2023-05-12T05:23:29.614Z,11.06
2023-05-12T05:26:16.206Z,11.16
2023-05-12T05:29:04.594Z,11.12
2023-05-12T05:31:52.658Z,11.23
2023-05-12T05:34:39.371Z,11.12
2023-05-12T05:37:26.220Z,10.94
2023-05-12T05:40:15.264Z,11.17
2023-05-12T05:43:01.809Z,11.00
2023-05-12T05:45:49.674Z,11.17
2023-05-12T05:48:39.012Z,11.10
2023-05-12T05:51:28.747Z,11.03
2023-05-12T05:54:15.195Z,11.17
2023-05-12T05:57:03.112Z,11.16
2023-05-12T05:59:50.434Z,11.17
2023-05-12T06:02:37.037Z,11.33
2023-05-12T06:05:24.712Z,11.35
2023-05-12T06:08:13.310Z,11.31
2023-05-12T06:10:59.695Z,11.35
2023-05-12T06:13:46.231Z,11.51
2023-05-12T06:16:32.731Z,11.30
2023-05-12T06:19:19.180Z,11.64
2023-05-12T06:22:05.616Z,11.49
2023-05-12T06:24:52.447Z,11.70
2023-05-12T06:27:38.639Z,11.75
2023-05-12T06:30:25.692Z,11.66
2023-05-12T06:33:14.418Z,11.53
2023-05-12T06:36:00.807Z,11.56
2023-05-12T06:38:47.181Z,11.83
2023-05-12T06:41:33.622Z,11.49
2023-05-12T06:44:20.503Z,12.03
2023-05-12T06:47:11.525Z,12.25
2023-05-12T06:49:58.345Z,12.26
2023-05-12T06:52:44.747Z,12.26
2023-05-12T06:55:31.140Z,12.21
2023-05-12T06:58:18.982Z,12.18
2023-05-12T07:01:05.912Z,12.25
2023-05-12T07:03:52.553Z,12.29
2023-05-12T07:06:39.037Z,12.33
2023-05-12T07:09:25.232Z,12.43
2023-05-12T07:12:11.972Z,12.52
2023-05-12T07:14:58.779Z,12.43
2023-05-12T07:17:45.412Z,12.60
2023-05-12T07:20:32.001Z,12.69
2023-05-12T07:23:18.323Z,12.62
2023-05-12T07:26:06.789Z,12.81
2023-05-12T07:28:53.183Z,12.79
2023-05-12T07:31:39.526Z,12.81
2023-05-12T07:34:26.364Z,12.57
2023-05-12T07:37:12.945Z,13.06
2023-05-12T07:39:59.650Z,13.09
2023-05-12T07:42:45.809Z,13.10
2023-05-12T07:45:32.277Z,13.01
2023-05-12T07:48:18.739Z,13.04
2023-05-12T07:51:06.837Z,13.12
2023-05-12T07:53:55.147Z,13.33
2023-05-12T07:56:41.345Z,13.57
2023-05-12T07:59:27.754Z,13.90
2023-05-12T08:02:14.317Z,13.88
2023-05-12T08:05:01.008Z,14.12
2023-05-12T08:07:47.539Z,14.26
2023-05-12T08:10:33.840Z,14.43
2023-05-12T08:13:20.134Z,14.48
2023-05-12T08:16:06.679Z,14.72
2023-05-12T08:18:53.238Z,14.84
2023-05-12T08:21:40.207Z,15.10
2023-05-12T08:24:27.241Z,15.34
2023-05-12T08:27:13.635Z,15.44
2023-05-12T08:29:59.965Z,15.37
2023-05-12T08:32:46.732Z,15.07
2023-05-12T08:35:32.988Z,15.04
2023-05-12T08:38:19.672Z,15.36
2023-05-12T08:41:47.485Z,15.50
2023-05-12T08:44:34.313Z,15.63
2023-05-12T08:47:22.975Z,16.00
2023-05-12T08:50:10.389Z,16.36
2023-05-12T08:52:57.213Z,16.64
2023-05-12T08:55:53.336Z,16.78
2023-05-12T08:58:48.796Z,17.02
2023-05-12T09:01:36.921Z,17.36
2023-05-12T09:04:23.663Z,17.41
2023-05-12T09:07:11.018Z,17.65
2023-05-12T09:09:58.758Z,17.68
2023-05-12T09:12:47.184Z,17.30
2023-05-12T09:15:42.759Z,17.04
2023-05-12T09:18:52.020Z,17.41
2023-05-12T09:21:38.432Z,17.30
2023-05-12T09:24:38.630Z,17.24
2023-05-12T09:27:28.820Z,17.01
2023-05-12T09:30:16.211Z,17.21
2023-05-12T09:33:09.746Z,16.40
2023-05-12T09:35:56.573Z,16.32
2023-05-12T09:38:43.833Z,16.19
2023-05-12T09:41:41.130Z,16.35
2023-05-12T09:44:29.313Z,16.47
2023-05-12T09:47:16.940Z,16.41
2023-05-12T09:50:04.961Z,16.65
2023-05-12T09:52:52.067Z,17.13
2023-05-12T09:55:38.379Z,16.99
2023-05-12T09:58:26.977Z,16.98
2023-05-12T10:01:23.350Z,17.48
2023-05-12T10:04:11.636Z,17.75
2023-05-12T10:06:59.053Z,17.79
2023-05-12T10:09:48.400Z,17.72
2023-05-12T10:12:36.009Z,17.78
2023-05-12T10:15:24.915Z,17.92
2023-05-12T10:18:12.850Z,18.33
2023-05-12T10:21:00.570Z,18.64
2023-05-12T10:23:48.629Z,18.85
2023-05-12T10:26:37.591Z,18.97
2023-05-12T10:29:32.790Z,18.69
2023-05-12T10:32:19.133Z,18.40
2023-05-12T10:35:10.057Z,17.25
2023-05-12T10:37:56.290Z,17.38
2023-05-12T10:40:59.885Z,17.19
2023-05-12T10:43:49.715Z,17.43
2023-05-12T10:46:37.082Z,17.54
2023-05-12T10:49:33.096Z,17.78
2023-05-12T10:52:20.292Z,17.90
2023-05-12T10:55:13.171Z,18.32
2023-05-12T10:58:09.798Z,18.03
2023-05-12T11:01:05.912Z,18.26
2023-05-12T11:03:53.752Z,17.87
2023-05-12T11:06:41.327Z,17.73
2023-05-12T11:09:27.752Z,17.33
2023-05-12T11:12:14.878Z,17.07
2023-05-12T11:15:02.205Z,17.38
2023-05-12T11:17:48.900Z,17.44
2023-05-12T11:20:35.179Z,17.15
2023-05-12T11:23:32.247Z,17.30
2023-05-12T11:26:19.058Z,16.89
2023-05-12T11:29:05.558Z,17.47
2023-05-12T11:31:52.700Z,17.44
2023-05-12T11:34:39.101Z,16.99
2023-05-12T11:37:25.475Z,16.98
2023-05-12T11:40:14.268Z,16.49
2023-05-12T11:43:10.419Z,15.99
2023-05-12T11:45:56.834Z,16.00
2023-05-12T11:48:57.906Z,15.66
2023-05-12T11:51:44.293Z,15.22
2023-05-12T11:54:31.118Z,15.34
2023-05-12T11:57:28.839Z,15.57
2023-05-12T12:00:15.618Z,15.33
2023-05-12T12:03:10.408Z,15.26
2023-05-12T12:06:01.722Z,15.82
2023-05-12T12:08:56.012Z,16.39
2023-05-12T12:11:42.252Z,16.02
2023-05-12T12:14:28.629Z,16.37
2023-05-12T12:17:14.863Z,16.76
2023-05-12T12:20:01.533Z,16.52
2023-05-12T12:22:48.133Z,16.45
2023-05-12T12:25:34.741Z,16.51
2023-05-12T12:28:21.057Z,16.59
2023-05-12T12:31:07.831Z,16.29
2023-05-12T12:33:54.327Z,16.34
2023-05-12T12:36:41.109Z,16.19
2023-05-12T12:39:27.715Z,16.84
2023-05-12T12:42:15.523Z,17.00
2023-05-12T12:45:05.998Z,17.09
2023-05-12T12:47:54.867Z,17.09
2023-05-12T12:50:41.150Z,16.82
2023-05-12T12:53:27.508Z,16.77
2023-05-12T12:56:13.803Z,17.12
2023-05-12T12:59:00.522Z,17.74
2023-05-12T13:01:47.298Z,17.46
2023-05-12T13:04:33.510Z,16.90
2023-05-12T13:07:19.675Z,17.07
2023-05-12T13:10:06.732Z,16.94
2023-05-12T13:12:53.117Z,17.08
2023-05-12T13:15:41.406Z,16.97
2023-05-12T13:18:27.998Z,16.88
2023-05-12T13:21:14.679Z,16.63
2023-05-12T13:24:00.872Z,16.71
2023-05-12T13:26:47.589Z,16.42
2023-05-12T13:29:34.162Z,16.53
2023-05-12T13:32:20.914Z,16.13
2023-05-12T13:35:08.717Z,16.23
2023-05-12T13:37:56.607Z,16.38
2023-05-12T13:40:42.819Z,16.23
2023-05-12T13:43:29.337Z,16.01
2023-05-12T13:46:15.802Z,16.42
2023-05-12T13:49:02.595Z,16.65
2023-05-12T13:51:48.958Z,16.24
2023-05-12T13:54:35.257Z,16.34
2023-05-12T13:57:21.580Z,16.13
2023-05-12T14:00:08.994Z,15.72
2023-05-12T14:03:03.974Z,16.05
2023-05-12T14:05:50.675Z,16.01
2023-05-12T14:08:36.869Z,16.29
2023-05-12T14:11:23.711Z,16.73
2023-05-12T14:14:10.490Z,16.35
2023-05-12T14:16:56.762Z,16.39
2023-05-12T14:19:43.149Z,16.34
2023-05-12T14:22:29.855Z,16.39
2023-05-12T14:25:16.249Z,16.13
2023-05-12T14:28:03.586Z,16.22
2023-05-12T14:30:50.694Z,15.96
2023-05-12T14:33:37.321Z,16.05
2023-05-12T14:36:23.571Z,16.00
2023-05-12T14:39:10.173Z,16.02
2023-05-12T14:41:56.458Z,16.03
2023-05-12T14:44:42.822Z,16.21
2023-05-12T14:47:29.156Z,16.30
2023-05-12T14:50:15.831Z,16.09
2023-05-12T14:53:02.076Z,16.07
2023-05-12T14:55:49.543Z,16.48
2023-05-12T14:58:35.970Z,16.60
2023-05-12T15:01:22.249Z,16.27
2023-05-12T15:04:08.918Z,16.14
2023-05-12T15:06:55.479Z,16.07
2023-05-12T15:09:42.010Z,16.11
2023-05-12T15:12:28.681Z,16.20
2023-05-12T15:15:14.919Z,16.13
2023-05-12T15:18:01.483Z,16.02
2023-05-12T15:20:47.991Z,15.94
2023-05-12T15:23:34.380Z,15.91
2023-05-12T15:26:32.669Z,15.90
2023-05-12T15:29:19.873Z,16.30
2023-05-12T15:32:07.403Z,16.13
2023-05-12T15:34:55.957Z,16.35
2023-05-12T15:37:42.847Z,16.09
2023-05-12T15:40:30.802Z,16.19
2023-05-12T15:43:18.022Z,16.07
2023-05-12T15:46:05.350Z,16.01
2023-05-12T15:48:51.957Z,15.69
2023-05-12T15:51:38.515Z,15.89
2023-05-12T15:54:26.442Z,15.54
2023-05-12T15:57:13.625Z,15.36
2023-05-12T15:59:59.879Z,15.34
2023-05-12T16:02:46.627Z,14.89
2023-05-12T16:05:37.595Z,15.06
2023-05-12T16:08:24.141Z,15.11
2023-05-12T16:11:10.555Z,15.13
2023-05-12T16:13:59.767Z,15.06
2023-05-12T16:16:49.480Z,14.90
2023-05-12T16:19:36.352Z,14.73
2023-05-12T16:22:23.000Z,14.91
2023-05-12T16:25:09.519Z,14.84
2023-05-12T16:27:55.915Z,15.14
2023-05-12T16:30:42.637Z,15.03
2023-05-12T16:33:29.204Z,15.00
2023-05-12T16:36:17.663Z,15.04
2023-05-12T16:39:04.055Z,14.97
2023-05-12T16:41:50.693Z,14.87
2023-05-12T16:44:36.834Z,15.14
2023-05-12T16:47:23.072Z,15.04
2023-05-12T16:50:09.973Z,15.07
2023-05-12T16:52:56.529Z,15.11
2023-05-12T16:55:42.863Z,15.15
2023-05-12T16:58:33.043Z,15.44
2023-05-12T17:01:19.849Z,15.58
2023-05-12T17:04:07.912Z,15.70
2023-05-12T17:06:54.630Z,15.52
2023-05-12T17:09:41.228Z,15.45
2023-05-12T17:12:27.703Z,15.49
2023-05-12T17:15:14.566Z,15.13
2023-05-12T17:18:01.059Z,15.06
2023-05-12T17:20:47.292Z,14.96
2023-05-12T17:23:33.878Z,14.76
2023-05-12T17:26:20.891Z,14.65
2023-05-12T17:29:07.086Z,14.42
2023-05-12T17:31:53.721Z,14.31
2023-05-12T17:34:40.466Z,14.49
2023-05-12T17:37:26.816Z,14.48
2023-05-12T17:40:19.841Z,14.31
2023-05-12T17:43:06.672Z,14.36
2023-05-12T17:45:53.174Z,14.30
2023-05-12T17:48:39.655Z,14.31
2023-05-12T17:51:26.726Z,14.23
2023-05-12T17:54:13.395Z,13.85
2023-05-12T17:57:00.085Z,14.17
2023-05-12T17:59:46.674Z,13.76
2023-05-12T18:02:33.212Z,13.80
2023-05-12T18:05:19.865Z,13.49
2023-05-12T18:08:07.866Z,13.52
2023-05-12T18:10:54.166Z,13.60
2023-05-12T18:13:40.547Z,13.36
2023-05-12T18:16:29.460Z,13.36
2023-05-12T18:19:16.087Z,13.33
2023-05-12T18:22:02.647Z,13.10
2023-05-12T18:24:50.534Z,12.84
2023-05-12T18:27:36.959Z,13.05
2023-05-12T18:30:23.263Z,12.86
2023-05-12T18:33:09.928Z,12.94
2023-05-12T18:35:56.427Z,12.83
2023-05-12T18:38:43.431Z,12.91
2023-05-12T18:41:29.827Z,12.53
2023-05-12T18:44:17.260Z,12.81
2023-05-12T18:47:03.804Z,12.53
2023-05-12T18:49:50.000Z,12.78
2023-05-12T18:52:36.866Z,12.74
2023-05-12T18:55:23.479Z,12.51
2023-05-12T18:58:09.956Z,12.70
2023-05-12T19:00:56.339Z,12.61
2023-05-12T19:03:42.728Z,12.48
2023-05-12T19:06:29.940Z,12.30
2023-05-12T19:09:16.258Z,12.38
2023-05-12T19:12:03.573Z,12.28
2023-05-12T19:14:50.083Z,12.17
2023-05-12T19:17:36.592Z,12.25
2023-05-12T19:20:23.524Z,12.19
2023-05-12T19:23:09.637Z,12.14
2023-05-12T19:25:56.156Z,12.06
2023-05-12T19:28:42.339Z,12.27
2023-05-12T19:31:28.783Z,12.19
2023-05-12T19:34:16.350Z,12.16
2023-05-12T19:37:03.201Z,12.03
2023-05-12T19:39:50.095Z,11.96
2023-05-12T19:42:37.970Z,12.02
2023-05-12T19:45:24.553Z,12.14
2023-05-12T19:48:11.188Z,12.20
2023-05-12T19:50:57.870Z,12.29
2023-05-12T19:53:44.246Z,12.20
2023-05-12T19:56:30.540Z,12.27
2023-05-12T19:59:18.532Z,11.87
2023-05-12T20:02:05.846Z,12.33
2023-05-12T20:04:52.413Z,12.24
2023-05-12T20:07:39.108Z,12.07
2023-05-12T20:10:25.391Z,12.12
2023-05-12T20:13:11.744Z,12.24
2023-05-12T20:15:58.073Z,12.10
2023-05-12T20:18:44.516Z,12.17
2023-05-12T20:21:31.468Z,12.24
2023-05-12T20:24:17.898Z,12.19
2023-05-12T20:27:04.686Z,12.21
2023-05-12T20:29:51.706Z,12.27
2023-05-12T20:32:38.357Z,12.18
2023-05-12T20:35:24.755Z,12.20
2023-05-12T20:38:11.594Z,11.96
2023-05-12T20:41:06.576Z,11.74
2023-05-12T20:43:52.992Z,11.51
2023-05-12T20:46:39.733Z,11.68
2023-05-12T20:49:26.075Z,11.64
2023-05-12T20:52:12.471Z,11.23
2023-05-12T20:54:59.833Z,11.77
2023-05-12T20:57:46.098Z,11.50
2023-05-12T21:00:32.652Z,11.85
2023-05-12T21:03:19.064Z,11.92
2023-05-12T21:06:05.894Z,12.00
2023-05-12T21:08:52.332Z,11.70
2023-05-12T21:11:38.805Z,11.98
2023-05-12T21:14:25.408Z,11.89
2023-05-12T21:17:12.873Z,11.90
2023-05-12T21:19:59.288Z,11.94
2023-05-12T21:22:45.805Z,11.84
2023-05-12T21:25:32.269Z,11.51
2023-05-12T21:28:18.466Z,11.81
2023-05-12T21:31:04.673Z,11.66
2023-05-12T21:33:50.763Z,11.42
2023-05-12T21:36:37.340Z,11.51
2023-05-12T21:39:23.779Z,11.48
2023-05-12T21:42:10.358Z,11.32
2023-05-12T21:44:56.634Z,11.44
2023-05-12T21:47:42.817Z,11.51
2023-05-12T21:50:29.053Z,11.45
2023-05-12T21:53:15.522Z,11.52
2023-05-12T21:56:02.017Z,11.32
2023-05-12T21:58:48.947Z,11.23
2023-05-12T22:01:35.127Z,11.31
2023-05-12T22:04:21.521Z,11.27
2023-05-12T22:07:08.595Z,11.37
2023-05-12T22:14:27.324Z,11.51
2023-05-12T22:17:14.075Z,11.53
2023-05-12T22:20:00.490Z,11.18
2023-05-12T22:22:47.140Z,11.27
2023-05-12T22:25:33.191Z,11.30
2023-05-12T22:28:20.121Z,11.44
2023-05-12T22:31:06.472Z,11.32
2023-05-12T22:33:52.681Z,11.42
2023-05-12T22:36:38.935Z,11.32
2023-05-12T22:39:25.384Z,11.29
2023-05-12T22:42:12.041Z,11.44
2023-05-12T22:44:58.522Z,11.42
2023-05-12T22:47:44.843Z,11.33
2023-05-12T22:50:31.124Z,11.45
2023-05-12T22:53:17.440Z,11.45
2023-05-12T22:56:04.510Z,11.29
2023-05-12T22:58:50.789Z,11.18
2023-05-12T23:01:37.083Z,11.18
2023-05-12T23:04:23.681Z,11.15
2023-05-12T23:07:10.219Z,11.30
2023-05-12T23:09:56.467Z,11.17
2023-05-12T23:12:42.921Z,10.92
2023-05-12T23:15:29.098Z,11.23
2023-05-12T23:18:15.552Z,10.90
2023-05-12T23:21:02.061Z,10.86
2023-05-12T23:23:48.277Z,10.91
2023-05-12T23:26:34.615Z,10.57
2023-05-12T23:29:20.976Z,10.49
2023-05-12T23:32:07.746Z,10.33
2023-05-12T23:34:54.108Z,10.08
2023-05-12T23:37:40.294Z,9.99
2023-05-12T23:40:26.384Z,10.03
2023-05-12T23:43:12.917Z,9.89
2023-05-12T23:45:59.281Z,9.96
2023-05-12T23:48:45.483Z,10.09
2023-05-12T23:51:32.789Z,10.12
2023-05-12T23:54:19.309Z,10.15
2023-05-12T23:57:05.589Z,10.08
2023-05-12T23:59:52.489Z,10.20
